sensor_id;sensor_type;location;lat;lon;timestamp;temperature;humidity
935;DHT22;454;53.254;10.400;2023-03-31T04:02:10;9.50;99.90
935;DHT22;454;53.254;10.400;2023-03-31T04:04:36;9.60;99.90
935;DHT22;454;53.254;10.400;2023-03-31T04:07:03;9.60;99.90
935;DHT22;454;53.254;10.400;2023-03-31T04:09:30;9.60;99.90
935;DHT22;454;53.254;10.400;2023-03-31T04:11:56;9.70;99.90
935;DHT22;454;53.254;10.400;2023-03-31T04:14:23;9.70;99.90
935;DHT22;454;53.254;10.400;2023-03-31T04:16:50;9.70;99.90
935;DHT22;454;53.254;10.400;2023-03-31T04:19:18;9.80;99.90
935;DHT22;454;53.254;10.400;2023-03-31T04:21:46;9.80;99.90
935;DHT22;454;53.254;10.400;2023-03-31T04:24:15;9.80;99.90
935;DHT22;454;53.254;10.400;2023-03-31T04:26:46;9.80;99.90
935;DHT22;454;53.254;10.400;2023-03-31T04:29:16;9.80;99.90
935;DHT22;454;53.254;10.400;2023-03-31T04:31:45;9.90;99.90
935;DHT22;454;53.254;10.400;2023-03-31T04:34:13;9.90;99.90
935;DHT22;454;53.254;10.400;2023-03-31T04:36:42;9.90;99.90
935;DHT22;454;53.254;10.400;2023-03-31T04:39:12;9.90;99.90
935;DHT22;454;53.254;10.400;2023-03-31T04:41:39;9.90;99.90
935;DHT22;454;53.254;10.400;2023-03-31T04:44:05;9.90;99.90
935;DHT22;454;53.254;10.400;2023-03-31T04:46:33;10.00;99.90
935;DHT22;454;53.254;10.400;2023-03-31T04:49:00;10.00;99.90
935;DHT22;454;53.254;10.400;2023-03-31T04:51:27;10.10;99.90
935;DHT22;454;53.254;10.400;2023-03-31T04:53:55;10.10;99.90
935;DHT22;454;53.254;10.400;2023-03-31T04:56:22;10.10;99.90
935;DHT22;454;53.254;10.400;2023-03-31T04:58:49;10.10;99.90
935;DHT22;454;53.254;10.400;2023-03-31T05:01:15;10.10;99.90
935;DHT22;454;53.254;10.400;2023-03-31T05:03:43;10.10;99.90
935;DHT22;454;53.254;10.400;2023-03-31T05:06:10;10.20;99.90
935;DHT22;454;53.254;10.400;2023-03-31T05:08:36;10.10;99.90
935;DHT22;454;53.254;10.400;2023-03-31T05:11:04;10.10;99.90
935;DHT22;454;53.254;10.400;2023-03-31T05:13:31;10.10;99.90
935;DHT22;454;53.254;10.400;2023-03-31T05:16:05;10.20;99.90
935;DHT22;454;53.254;10.400;2023-03-31T05:18:32;10.10;99.90
935;DHT22;454;53.254;10.400;2023-03-31T05:21:08;10.10;99.90
935;DHT22;454;53.254;10.400;2023-03-31T05:23:35;10.10;99.90
935;DHT22;454;53.254;10.400;2023-03-31T05:26:01;10.10;99.90
935;DHT22;454;53.254;10.400;2023-03-31T05:28:29;10.10;99.90
935;DHT22;454;53.254;10.400;2023-03-31T05:30:58;10.10;99.90
935;DHT22;454;53.254;10.400;2023-03-31T05:33:26;10.10;99.90
935;DHT22;454;53.254;10.400;2023-03-31T05:35:52;10.10;99.90
935;DHT22;454;53.254;10.400;2023-03-31T05:38:19;10.10;99.90
935;DHT22;454;53.254;10.400;2023-03-31T05:40:47;10.10;99.90
935;DHT22;454;53.254;10.400;2023-03-31T05:43:14;10.10;99.90
935;DHT22;454;53.254;10.400;2023-03-31T05:45:42;10.10;99.90
935;DHT22;454;53.254;10.400;2023-03-31T05:48:09;10.10;99.90
935;DHT22;454;53.254;10.400;2023-03-31T05:50:36;10.10;99.90
935;DHT22;454;53.254;10.400;2023-03-31T05:53:03;10.10;99.90
935;DHT22;454;53.254;10.400;2023-03-31T05:55:29;10.10;99.90
935;DHT22;454;53.254;10.400;2023-03-31T05:57:58;10.10;99.90
935;DHT22;454;53.254;10.400;2023-03-31T06:00:25;10.20;99.90
935;DHT22;454;53.254;10.400;2023-03-31T06:02:53;10.20;99.90
935;DHT22;454;53.254;10.400;2023-03-31T06:05:19;10.20;99.90
935;DHT22;454;53.254;10.400;2023-03-31T06:07:50;10.30;99.90
935;DHT22;454;53.254;10.400;2023-03-31T06:10:16;10.30;99.90
935;DHT22;454;53.254;10.400;2023-03-31T06:12:43;10.30;99.90
935;DHT22;454;53.254;10.400;2023-03-31T06:15:10;10.40;99.90
935;DHT22;454;53.254;10.400;2023-03-31T06:17:37;10.40;99.90
935;DHT22;454;53.254;10.400;2023-03-31T06:20:06;10.40;99.90
935;DHT22;454;53.254;10.400;2023-03-31T06:22:33;10.50;99.90
935;DHT22;454;53.254;10.400;2023-03-31T06:25:00;10.50;99.90
935;DHT22;454;53.254;10.400;2023-03-31T06:27:26;10.50;99.90
935;DHT22;454;53.254;10.400;2023-03-31T06:29:53;10.60;99.90
935;DHT22;454;53.254;10.400;2023-03-31T06:32:20;10.60;99.90
935;DHT22;454;53.254;10.400;2023-03-31T06:34:47;10.60;99.90
935;DHT22;454;53.254;10.400;2023-03-31T06:37:15;10.70;99.90
935;DHT22;454;53.254;10.400;2023-03-31T06:39:41;10.70;99.90
935;DHT22;454;53.254;10.400;2023-03-31T06:42:09;10.80;99.90
935;DHT22;454;53.254;10.400;2023-03-31T06:44:36;10.80;99.90
935;DHT22;454;53.254;10.400;2023-03-31T06:47:02;10.80;99.90
935;DHT22;454;53.254;10.400;2023-03-31T06:49:29;10.90;99.90
935;DHT22;454;53.254;10.400;2023-03-31T06:51:56;10.90;99.90
935;DHT22;454;53.254;10.400;2023-03-31T06:54:24;10.90;99.90
935;DHT22;454;53.254;10.400;2023-03-31T06:56:50;11.10;99.90
935;DHT22;454;53.254;10.400;2023-03-31T06:59:17;11.20;99.90
935;DHT22;454;53.254;10.400;2023-03-31T07:01:44;11.30;99.90
935;DHT22;454;53.254;10.400;2023-03-31T07:04:12;11.40;99.90
935;DHT22;454;53.254;10.400;2023-03-31T07:06:39;11.40;99.90
935;DHT22;454;53.254;10.400;2023-03-31T07:09:06;11.50;99.90
935;DHT22;454;53.254;10.400;2023-03-31T07:11:34;11.40;99.90
935;DHT22;454;53.254;10.400;2023-03-31T07:14:00;11.40;99.90
935;DHT22;454;53.254;10.400;2023-03-31T07:16:27;11.50;99.90
935;DHT22;454;53.254;10.400;2023-03-31T07:18:55;11.50;99.90
935;DHT22;454;53.254;10.400;2023-03-31T07:21:24;11.50;99.90
935;DHT22;454;53.254;10.400;2023-03-31T07:23:51;11.40;99.90
935;DHT22;454;53.254;10.400;2023-03-31T07:26:18;11.40;99.90
935;DHT22;454;53.254;10.400;2023-03-31T07:28:46;11.40;99.90
935;DHT22;454;53.254;10.400;2023-03-31T07:31:13;11.30;99.90
935;DHT22;454;53.254;10.400;2023-03-31T07:33:40;11.30;99.90
935;DHT22;454;53.254;10.400;2023-03-31T07:36:07;11.30;99.90
935;DHT22;454;53.254;10.400;2023-03-31T07:38:34;11.30;99.90
935;DHT22;454;53.254;10.400;2023-03-31T07:41:01;11.30;99.90
935;DHT22;454;53.254;10.400;2023-03-31T07:43:28;11.30;99.90
935;DHT22;454;53.254;10.400;2023-03-31T07:45:56;11.30;99.90
935;DHT22;454;53.254;10.400;2023-03-31T07:48:22;11.30;99.90
935;DHT22;454;53.254;10.400;2023-03-31T07:50:49;11.30;99.90
935;DHT22;454;53.254;10.400;2023-03-31T07:53:16;11.20;99.90
935;DHT22;454;53.254;10.400;2023-03-31T07:55:43;11.20;99.90
935;DHT22;454;53.254;10.400;2023-03-31T07:58:10;11.20;99.90
935;DHT22;454;53.254;10.400;2023-03-31T08:00:37;11.20;99.90
935;DHT22;454;53.254;10.400;2023-03-31T08:03:05;11.20;99.90
935;DHT22;454;53.254;10.400;2023-03-31T08:05:32;11.10;99.90
935;DHT22;454;53.254;10.400;2023-03-31T08:07:58;11.00;99.90
935;DHT22;454;53.254;10.400;2023-03-31T08:10:26;11.00;99.90
935;DHT22;454;53.254;10.400;2023-03-31T08:12:53;11.00;99.90
935;DHT22;454;53.254;10.400;2023-03-31T08:15:21;11.00;99.90
935;DHT22;454;53.254;10.400;2023-03-31T08:17:48;11.00;99.90
935;DHT22;454;53.254;10.400;2023-03-31T08:20:16;11.00;99.90
935;DHT22;454;53.254;10.400;2023-03-31T08:22:43;11.10;99.90
935;DHT22;454;53.254;10.400;2023-03-31T08:25:10;11.10;99.90
935;DHT22;454;53.254;10.400;2023-03-31T08:27:38;11.10;99.90
935;DHT22;454;53.254;10.400;2023-03-31T08:30:07;11.10;99.90
935;DHT22;454;53.254;10.400;2023-03-31T08:32:34;11.10;99.90
935;DHT22;454;53.254;10.400;2023-03-31T08:35:01;11.00;99.90
935;DHT22;454;53.254;10.400;2023-03-31T08:37:29;11.00;99.90
935;DHT22;454;53.254;10.400;2023-03-31T08:39:56;11.00;99.90
935;DHT22;454;53.254;10.400;2023-03-31T08:42:31;11.10;99.90
935;DHT22;454;53.254;10.400;2023-03-31T08:45:03;11.10;99.90
935;DHT22;454;53.254;10.400;2023-03-31T08:47:33;11.10;99.90
935;DHT22;454;53.254;10.400;2023-03-31T08:50:05;11.10;99.90
935;DHT22;454;53.254;10.400;2023-03-31T08:52:38;11.10;99.90
935;DHT22;454;53.254;10.400;2023-03-31T08:55:12;11.10;99.90
935;DHT22;454;53.254;10.400;2023-03-31T08:57:49;11.10;99.90
935;DHT22;454;53.254;10.400;2023-03-31T09:00:18;11.10;99.90
935;DHT22;454;53.254;10.400;2023-03-31T09:02:50;11.10;99.90
935;DHT22;454;53.254;10.400;2023-03-31T09:05:42;11.10;99.90
935;DHT22;454;53.254;10.400;2023-03-31T09:08:20;11.10;99.90
935;DHT22;454;53.254;10.400;2023-03-31T09:10:55;11.10;99.90
935;DHT22;454;53.254;10.400;2023-03-31T09:13:37;11.10;99.90
935;DHT22;454;53.254;10.400;2023-03-31T09:16:13;11.10;99.90
935;DHT22;454;53.254;10.400;2023-03-31T09:18:41;11.10;99.90
935;DHT22;454;53.254;10.400;2023-03-31T09:21:15;11.00;99.90
935;DHT22;454;53.254;10.400;2023-03-31T09:23:47;11.00;99.90
935;DHT22;454;53.254;10.400;2023-03-31T09:26:21;11.10;99.90
935;DHT22;454;53.254;10.400;2023-03-31T09:28:51;11.10;99.90
935;DHT22;454;53.254;10.400;2023-03-31T09:31:19;11.10;99.90
935;DHT22;454;53.254;10.400;2023-03-31T09:33:50;11.10;99.90
935;DHT22;454;53.254;10.400;2023-03-31T09:36:20;11.20;99.90
935;DHT22;454;53.254;10.400;2023-03-31T09:38:49;11.30;99.90
935;DHT22;454;53.254;10.400;2023-03-31T09:41:17;11.30;99.90
935;DHT22;454;53.254;10.400;2023-03-31T09:43:45;11.30;99.90
935;DHT22;454;53.254;10.400;2023-03-31T09:46:16;11.40;99.90
935;DHT22;454;53.254;10.400;2023-03-31T09:48:51;11.40;99.90
935;DHT22;454;53.254;10.400;2023-03-31T09:51:23;11.40;99.90
935;DHT22;454;53.254;10.400;2023-03-31T09:53:56;11.50;99.90
935;DHT22;454;53.254;10.400;2023-03-31T09:56:45;11.50;99.90
935;DHT22;454;53.254;10.400;2023-03-31T09:59:14;11.50;99.90
935;DHT22;454;53.254;10.400;2023-03-31T10:01:43;11.50;99.90
935;DHT22;454;53.254;10.400;2023-03-31T10:04:16;11.50;99.90
935;DHT22;454;53.254;10.400;2023-03-31T10:06:44;11.50;99.90
935;DHT22;454;53.254;10.400;2023-03-31T10:09:13;11.50;99.90
935;DHT22;454;53.254;10.400;2023-03-31T10:11:52;11.50;99.90
935;DHT22;454;53.254;10.400;2023-03-31T10:14:24;11.60;99.90
935;DHT22;454;53.254;10.400;2023-03-31T10:16:53;11.70;99.90
935;DHT22;454;53.254;10.400;2023-03-31T10:19:22;11.80;99.90
935;DHT22;454;53.254;10.400;2023-03-31T10:21:55;11.90;99.90
935;DHT22;454;53.254;10.400;2023-03-31T10:24:24;12.00;99.90
935;DHT22;454;53.254;10.400;2023-03-31T10:26:54;12.00;99.90
935;DHT22;454;53.254;10.400;2023-03-31T10:29:25;12.00;99.90
935;DHT22;454;53.254;10.400;2023-03-31T10:31:54;12.00;99.90
935;DHT22;454;53.254;10.400;2023-03-31T10:34:22;11.90;99.90
935;DHT22;454;53.254;10.400;2023-03-31T10:36:50;11.80;99.90
935;DHT22;454;53.254;10.400;2023-03-31T10:39:18;11.80;99.90
935;DHT22;454;53.254;10.400;2023-03-31T10:41:50;11.70;99.90
935;DHT22;454;53.254;10.400;2023-03-31T10:44:32;11.70;99.90
935;DHT22;454;53.254;10.400;2023-03-31T10:47:04;11.70;99.90
935;DHT22;454;53.254;10.400;2023-03-31T10:49:36;11.80;99.90
935;DHT22;454;53.254;10.400;2023-03-31T10:52:15;11.70;99.90
935;DHT22;454;53.254;10.400;2023-03-31T10:54:47;11.70;99.90
935;DHT22;454;53.254;10.400;2023-03-31T10:57:16;11.50;99.90
935;DHT22;454;53.254;10.400;2023-03-31T10:59:59;11.50;99.90
935;DHT22;454;53.254;10.400;2023-03-31T11:03:08;11.50;99.90
935;DHT22;454;53.254;10.400;2023-03-31T11:05:40;11.40;99.90
935;DHT22;454;53.254;10.400;2023-03-31T11:08:26;11.40;99.90
935;DHT22;454;53.254;10.400;2023-03-31T11:11:07;11.40;99.90
935;DHT22;454;53.254;10.400;2023-03-31T11:13:44;11.40;99.90
935;DHT22;454;53.254;10.400;2023-03-31T11:16:18;11.40;99.90
935;DHT22;454;53.254;10.400;2023-03-31T11:19:10;11.40;99.90
935;DHT22;454;53.254;10.400;2023-03-31T11:21:50;11.40;99.90
935;DHT22;454;53.254;10.400;2023-03-31T11:24:35;11.40;99.90
935;DHT22;454;53.254;10.400;2023-03-31T11:27:12;11.40;99.90
935;DHT22;454;53.254;10.400;2023-03-31T11:29:47;11.30;99.90
935;DHT22;454;53.254;10.400;2023-03-31T11:32:30;11.20;99.90
935;DHT22;454;53.254;10.400;2023-03-31T11:35:05;11.20;99.90
935;DHT22;454;53.254;10.400;2023-03-31T11:37:55;11.10;99.90
935;DHT22;454;53.254;10.400;2023-03-31T11:40:35;11.10;99.90
935;DHT22;454;53.254;10.400;2023-03-31T11:43:08;11.10;99.90
935;DHT22;454;53.254;10.400;2023-03-31T11:45:41;11.10;99.90
935;DHT22;454;53.254;10.400;2023-03-31T11:48:16;11.10;99.90
935;DHT22;454;53.254;10.400;2023-03-31T11:50:45;11.00;99.90
935;DHT22;454;53.254;10.400;2023-03-31T11:53:16;11.10;99.90
935;DHT22;454;53.254;10.400;2023-03-31T11:55:47;11.20;99.90
935;DHT22;454;53.254;10.400;2023-03-31T11:58:17;11.20;99.90
935;DHT22;454;53.254;10.400;2023-03-31T12:00:51;11.20;99.90
935;DHT22;454;53.254;10.400;2023-03-31T12:03:23;11.30;99.90
935;DHT22;454;53.254;10.400;2023-03-31T12:05:56;11.30;99.90
935;DHT22;454;53.254;10.400;2023-03-31T12:08:27;11.30;99.90
935;DHT22;454;53.254;10.400;2023-03-31T12:11:01;11.40;99.90
935;DHT22;454;53.254;10.400;2023-03-31T12:13:40;11.40;99.90
935;DHT22;454;53.254;10.400;2023-03-31T12:16:13;11.50;99.90
935;DHT22;454;53.254;10.400;2023-03-31T12:18:43;11.60;99.90
935;DHT22;454;53.254;10.400;2023-03-31T12:21:12;11.60;99.90
935;DHT22;454;53.254;10.400;2023-03-31T12:23:42;11.50;99.90
935;DHT22;454;53.254;10.400;2023-03-31T12:26:17;11.60;99.90
935;DHT22;454;53.254;10.400;2023-03-31T12:28:52;11.70;99.90
935;DHT22;454;53.254;10.400;2023-03-31T12:31:23;11.80;99.90
935;DHT22;454;53.254;10.400;2023-03-31T12:33:54;11.80;99.90
935;DHT22;454;53.254;10.400;2023-03-31T12:36:32;11.90;99.90
935;DHT22;454;53.254;10.400;2023-03-31T12:39:16;12.00;99.90
935;DHT22;454;53.254;10.400;2023-03-31T12:42:02;12.00;99.90
935;DHT22;454;53.254;10.400;2023-03-31T12:44:37;12.10;99.90
935;DHT22;454;53.254;10.400;2023-03-31T12:47:23;12.10;99.90
935;DHT22;454;53.254;10.400;2023-03-31T12:52:51;12.10;99.90
935;DHT22;454;53.254;10.400;2023-03-31T12:55:32;12.20;99.90
935;DHT22;454;53.254;10.400;2023-03-31T13:01:03;12.00;99.90
935;DHT22;454;53.254;10.400;2023-03-31T13:03:42;12.00;99.90
935;DHT22;454;53.254;10.400;2023-03-31T13:06:10;12.00;99.90
935;DHT22;454;53.254;10.400;2023-03-31T13:08:52;12.10;99.90
935;DHT22;454;53.254;10.400;2023-03-31T13:11:21;12.10;99.90
935;DHT22;454;53.254;10.400;2023-03-31T13:13:58;12.20;99.90
935;DHT22;454;53.254;10.400;2023-03-31T13:16:26;12.30;99.90
935;DHT22;454;53.254;10.400;2023-03-31T13:18:55;12.40;99.90
935;DHT22;454;53.254;10.400;2023-03-31T13:21:22;12.50;99.90
935;DHT22;454;53.254;10.400;2023-03-31T13:23:49;12.60;99.90
935;DHT22;454;53.254;10.400;2023-03-31T13:26:37;12.60;99.90
935;DHT22;454;53.254;10.400;2023-03-31T13:29:19;12.50;99.90
935;DHT22;454;53.254;10.400;2023-03-31T13:32:04;12.50;99.90
935;DHT22;454;53.254;10.400;2023-03-31T13:34:35;12.50;99.90
935;DHT22;454;53.254;10.400;2023-03-31T13:37:14;12.50;99.90
935;DHT22;454;53.254;10.400;2023-03-31T13:40:17;12.40;99.90
935;DHT22;454;53.254;10.400;2023-03-31T13:45:47;12.40;99.90
935;DHT22;454;53.254;10.400;2023-03-31T13:48:26;12.60;99.90
935;DHT22;454;53.254;10.400;2023-03-31T13:51:16;12.70;99.90
935;DHT22;454;53.254;10.400;2023-03-31T13:54:08;12.70;99.90
935;DHT22;454;53.254;10.400;2023-03-31T13:56:53;12.80;99.90
935;DHT22;454;53.254;10.400;2023-03-31T14:00:09;12.90;99.90
935;DHT22;454;53.254;10.400;2023-03-31T14:02:47;13.00;99.90
935;DHT22;454;53.254;10.400;2023-03-31T14:05:30;13.10;99.90
935;DHT22;454;53.254;10.400;2023-03-31T14:08:02;13.10;99.90
935;DHT22;454;53.254;10.400;2023-03-31T14:10:33;13.10;99.90
935;DHT22;454;53.254;10.400;2023-03-31T14:13:05;13.10;99.90
935;DHT22;454;53.254;10.400;2023-03-31T14:15:32;13.10;99.90
935;DHT22;454;53.254;10.400;2023-03-31T14:18:01;13.10;99.90
935;DHT22;454;53.254;10.400;2023-03-31T14:20:34;13.00;99.90
935;DHT22;454;53.254;10.400;2023-03-31T14:23:13;13.10;99.90
935;DHT22;454;53.254;10.400;2023-03-31T14:25:48;13.10;99.90
935;DHT22;454;53.254;10.400;2023-03-31T14:28:25;13.00;99.90
935;DHT22;454;53.254;10.400;2023-03-31T14:31:07;13.00;99.90
935;DHT22;454;53.254;10.400;2023-03-31T14:33:42;13.10;99.90
935;DHT22;454;53.254;10.400;2023-03-31T14:36:17;13.10;99.90
935;DHT22;454;53.254;10.400;2023-03-31T14:38:51;13.20;99.90
935;DHT22;454;53.254;10.400;2023-03-31T14:41:20;13.20;99.90
935;DHT22;454;53.254;10.400;2023-03-31T14:43:55;13.30;99.90
935;DHT22;454;53.254;10.400;2023-03-31T14:46:23;13.30;99.90
935;DHT22;454;53.254;10.400;2023-03-31T14:48:50;13.30;99.90
935;DHT22;454;53.254;10.400;2023-03-31T14:51:22;13.20;99.90
935;DHT22;454;53.254;10.400;2023-03-31T14:53:56;13.10;99.90
935;DHT22;454;53.254;10.400;2023-03-31T14:56:28;13.10;99.90
935;DHT22;454;53.254;10.400;2023-03-31T14:58:58;13.10;99.90
935;DHT22;454;53.254;10.400;2023-03-31T15:01:28;13.00;99.90
935;DHT22;454;53.254;10.400;2023-03-31T15:04:00;13.10;99.90
935;DHT22;454;53.254;10.400;2023-03-31T15:06:31;13.10;99.90
935;DHT22;454;53.254;10.400;2023-03-31T15:09:02;13.10;99.90
935;DHT22;454;53.254;10.400;2023-03-31T15:11:29;13.10;99.90
935;DHT22;454;53.254;10.400;2023-03-31T15:13:58;13.10;99.90
935;DHT22;454;53.254;10.400;2023-03-31T15:16:30;13.10;99.90
935;DHT22;454;53.254;10.400;2023-03-31T15:19:00;13.00;99.90
935;DHT22;454;53.254;10.400;2023-03-31T15:21:31;13.00;99.90
935;DHT22;454;53.254;10.400;2023-03-31T15:23:59;12.90;99.90
935;DHT22;454;53.254;10.400;2023-03-31T15:26:29;12.90;99.90
935;DHT22;454;53.254;10.400;2023-03-31T15:29:00;12.80;99.90
935;DHT22;454;53.254;10.400;2023-03-31T15:31:29;12.80;99.90
935;DHT22;454;53.254;10.400;2023-03-31T15:33:56;12.70;99.90
935;DHT22;454;53.254;10.400;2023-03-31T15:36:24;12.60;99.90
935;DHT22;454;53.254;10.400;2023-03-31T15:38:55;12.50;99.90
935;DHT22;454;53.254;10.400;2023-03-31T15:41:28;12.40;99.90
935;DHT22;454;53.254;10.400;2023-03-31T15:44:03;12.30;99.90
935;DHT22;454;53.254;10.400;2023-03-31T15:46:48;12.20;99.90
935;DHT22;454;53.254;10.400;2023-03-31T15:49:19;12.20;99.90
935;DHT22;454;53.254;10.400;2023-03-31T15:51:46;12.30;99.90
935;DHT22;454;53.254;10.400;2023-03-31T15:54:28;12.40;99.90
935;DHT22;454;53.254;10.400;2023-03-31T15:56:59;12.50;99.90
935;DHT22;454;53.254;10.400;2023-03-31T15:59:28;12.60;99.90
935;DHT22;454;53.254;10.400;2023-03-31T16:01:56;12.60;99.90
935;DHT22;454;53.254;10.400;2023-03-31T16:04:29;12.60;99.90
935;DHT22;454;53.254;10.400;2023-03-31T16:06:59;12.60;99.90
935;DHT22;454;53.254;10.400;2023-03-31T16:09:38;12.60;99.90
935;DHT22;454;53.254;10.400;2023-03-31T16:12:14;12.60;99.90
935;DHT22;454;53.254;10.400;2023-03-31T16:14:45;12.50;99.90
935;DHT22;454;53.254;10.400;2023-03-31T16:17:23;12.50;99.90
935;DHT22;454;53.254;10.400;2023-03-31T16:19:55;12.50;99.90
935;DHT22;454;53.254;10.400;2023-03-31T16:22:28;12.50;99.90
935;DHT22;454;53.254;10.400;2023-03-31T16:24:56;12.60;99.90
935;DHT22;454;53.254;10.400;2023-03-31T16:27:24;12.50;99.90
935;DHT22;454;53.254;10.400;2023-03-31T16:30:05;12.40;99.90
935;DHT22;454;53.254;10.400;2023-03-31T16:32:32;12.40;99.90
935;DHT22;454;53.254;10.400;2023-03-31T16:35:00;12.30;99.90
935;DHT22;454;53.254;10.400;2023-03-31T16:37:27;12.40;99.90
935;DHT22;454;53.254;10.400;2023-03-31T16:39:55;12.30;99.90
935;DHT22;454;53.254;10.400;2023-03-31T16:42:24;12.30;99.90
935;DHT22;454;53.254;10.400;2023-03-31T16:44:51;12.30;99.90
935;DHT22;454;53.254;10.400;2023-03-31T16:47:18;12.30;99.90
935;DHT22;454;53.254;10.400;2023-03-31T16:49:44;12.20;99.90
935;DHT22;454;53.254;10.400;2023-03-31T16:52:11;12.20;99.90
935;DHT22;454;53.254;10.400;2023-03-31T16:54:38;12.20;99.90
935;DHT22;454;53.254;10.400;2023-03-31T16:57:05;12.20;99.90
935;DHT22;454;53.254;10.400;2023-03-31T16:59:34;12.20;99.90
935;DHT22;454;53.254;10.400;2023-03-31T17:02:01;12.10;99.90
935;DHT22;454;53.254;10.400;2023-03-31T17:04:27;12.10;99.90
935;DHT22;454;53.254;10.400;2023-03-31T17:06:54;12.10;99.90
935;DHT22;454;53.254;10.400;2023-03-31T17:09:21;12.10;99.90
935;DHT22;454;53.254;10.400;2023-03-31T17:11:48;12.10;99.90
935;DHT22;454;53.254;10.400;2023-03-31T17:14:14;12.10;99.90
935;DHT22;454;53.254;10.400;2023-03-31T17:16:42;12.10;99.90
935;DHT22;454;53.254;10.400;2023-03-31T17:19:09;12.10;99.90
935;DHT22;454;53.254;10.400;2023-03-31T17:21:36;12.00;99.90
935;DHT22;454;53.254;10.400;2023-03-31T17:24:06;12.00;99.90
935;DHT22;454;53.254;10.400;2023-03-31T17:26:33;12.00;99.90
935;DHT22;454;53.254;10.400;2023-03-31T17:29:02;12.00;99.90
935;DHT22;454;53.254;10.400;2023-03-31T17:31:29;12.00;99.90
935;DHT22;454;53.254;10.400;2023-03-31T17:33:57;12.00;99.90
935;DHT22;454;53.254;10.400;2023-03-31T17:36:24;11.90;99.90
935;DHT22;454;53.254;10.400;2023-03-31T17:38:51;11.90;99.90
935;DHT22;454;53.254;10.400;2023-03-31T17:41:18;11.90;99.90
935;DHT22;454;53.254;10.400;2023-03-31T17:43:46;11.80;99.90
935;DHT22;454;53.254;10.400;2023-03-31T17:46:16;11.80;99.90
935;DHT22;454;53.254;10.400;2023-03-31T17:48:44;11.70;99.90
935;DHT22;454;53.254;10.400;2023-03-31T17:51:13;11.70;99.90
935;DHT22;454;53.254;10.400;2023-03-31T17:53:41;11.70;99.90
935;DHT22;454;53.254;10.400;2023-03-31T17:56:09;11.60;99.90
935;DHT22;454;53.254;10.400;2023-03-31T17:58:36;11.50;99.90
935;DHT22;454;53.254;10.400;2023-03-31T18:01:04;11.50;99.90
935;DHT22;454;53.254;10.400;2023-03-31T18:03:32;11.40;99.90
935;DHT22;454;53.254;10.400;2023-03-31T18:06:04;11.40;99.90
935;DHT22;454;53.254;10.400;2023-03-31T18:08:33;11.40;99.90
935;DHT22;454;53.254;10.400;2023-03-31T18:11:00;11.30;99.90
935;DHT22;454;53.254;10.400;2023-03-31T18:13:29;11.30;99.90
935;DHT22;454;53.254;10.400;2023-03-31T18:15:56;11.30;99.90
935;DHT22;454;53.254;10.400;2023-03-31T18:18:23;11.30;99.90
935;DHT22;454;53.254;10.400;2023-03-31T18:20:51;11.30;99.90
935;DHT22;454;53.254;10.400;2023-03-31T18:23:18;11.30;99.90
935;DHT22;454;53.254;10.400;2023-03-31T18:25:47;11.30;99.90
935;DHT22;454;53.254;10.400;2023-03-31T18:28:15;11.20;99.90
935;DHT22;454;53.254;10.400;2023-03-31T18:30:42;11.20;99.90
935;DHT22;454;53.254;10.400;2023-03-31T18:33:11;11.20;99.90
935;DHT22;454;53.254;10.400;2023-03-31T18:35:38;11.20;99.90
935;DHT22;454;53.254;10.400;2023-03-31T18:38:05;11.20;99.90
935;DHT22;454;53.254;10.400;2023-03-31T18:40:32;11.20;99.90
935;DHT22;454;53.254;10.400;2023-03-31T18:43:00;11.20;99.90
935;DHT22;454;53.254;10.400;2023-03-31T18:45:27;11.20;99.90
935;DHT22;454;53.254;10.400;2023-03-31T18:47:55;11.10;99.90
935;DHT22;454;53.254;10.400;2023-03-31T18:50:21;11.10;99.90
935;DHT22;454;53.254;10.400;2023-03-31T18:52:49;11.10;99.90
935;DHT22;454;53.254;10.400;2023-03-31T18:55:17;11.10;99.90
935;DHT22;454;53.254;10.400;2023-03-31T18:57:44;11.10;99.90
935;DHT22;454;53.254;10.400;2023-03-31T19:00:13;11.10;99.90
935;DHT22;454;53.254;10.400;2023-03-31T19:02:40;11.10;99.90
935;DHT22;454;53.254;10.400;2023-03-31T19:05:08;11.10;99.90
935;DHT22;454;53.254;10.400;2023-03-31T19:07:34;11.10;99.90
935;DHT22;454;53.254;10.400;2023-03-31T19:10:01;11.00;99.90
935;DHT22;454;53.254;10.400;2023-03-31T19:12:28;11.00;99.90
935;DHT22;454;53.254;10.400;2023-03-31T19:14:55;11.00;99.90
935;DHT22;454;53.254;10.400;2023-03-31T19:17:23;11.00;99.90
935;DHT22;454;53.254;10.400;2023-03-31T19:19:50;11.00;99.90
935;DHT22;454;53.254;10.400;2023-03-31T19:22:17;11.00;99.90
935;DHT22;454;53.254;10.400;2023-03-31T19:24:44;11.00;99.90
935;DHT22;454;53.254;10.400;2023-03-31T19:27:11;11.00;99.90
935;DHT22;454;53.254;10.400;2023-03-31T19:29:38;11.00;99.90
935;DHT22;454;53.254;10.400;2023-03-31T19:32:05;11.00;99.90
935;DHT22;454;53.254;10.400;2023-03-31T19:34:33;10.90;99.90
935;DHT22;454;53.254;10.400;2023-03-31T19:37:00;10.90;99.90
935;DHT22;454;53.254;10.400;2023-03-31T19:39:28;10.90;99.90
935;DHT22;454;53.254;10.400;2023-03-31T19:41:55;10.90;99.90
935;DHT22;454;53.254;10.400;2023-03-31T19:44:21;10.90;99.90
935;DHT22;454;53.254;10.400;2023-03-31T19:46:48;10.90;99.90
935;DHT22;454;53.254;10.400;2023-03-31T19:49:15;10.90;99.90
935;DHT22;454;53.254;10.400;2023-03-31T19:51:43;10.90;99.90
935;DHT22;454;53.254;10.400;2023-03-31T19:54:10;10.80;99.90
935;DHT22;454;53.254;10.400;2023-03-31T19:56:37;10.80;99.90
935;DHT22;454;53.254;10.400;2023-03-31T19:59:05;10.80;99.90
935;DHT22;454;53.254;10.400;2023-03-31T20:01:32;10.80;99.90
935;DHT22;454;53.254;10.400;2023-03-31T20:03:58;10.80;99.90
935;DHT22;454;53.254;10.400;2023-03-31T20:06:27;10.80;99.90
935;DHT22;454;53.254;10.400;2023-03-31T20:08:57;10.80;99.90
935;DHT22;454;53.254;10.400;2023-03-31T20:11:25;10.80;99.90
935;DHT22;454;53.254;10.400;2023-03-31T20:13:52;10.80;99.90
935;DHT22;454;53.254;10.400;2023-03-31T20:16:21;10.70;99.90
935;DHT22;454;53.254;10.400;2023-03-31T20:18:51;10.70;99.90
935;DHT22;454;53.254;10.400;2023-03-31T20:21:19;10.70;99.90
935;DHT22;454;53.254;10.400;2023-03-31T20:23:47;10.70;99.90
935;DHT22;454;53.254;10.400;2023-03-31T20:26:17;10.70;99.90
935;DHT22;454;53.254;10.400;2023-03-31T20:28:44;10.60;99.90
935;DHT22;454;53.254;10.400;2023-03-31T20:31:13;10.60;99.90
935;DHT22;454;53.254;10.400;2023-03-31T20:33:41;10.60;99.90
935;DHT22;454;53.254;10.400;2023-03-31T20:36:10;10.60;99.90
935;DHT22;454;53.254;10.400;2023-03-31T20:38:38;10.60;99.90
935;DHT22;454;53.254;10.400;2023-03-31T20:41:05;10.60;99.90
935;DHT22;454;53.254;10.400;2023-03-31T20:43:34;10.50;99.90
935;DHT22;454;53.254;10.400;2023-03-31T20:46:03;10.50;99.90
935;DHT22;454;53.254;10.400;2023-03-31T20:48:32;10.50;99.90
935;DHT22;454;53.254;10.400;2023-03-31T20:51:01;10.50;99.90